Time;durP1;ratioP1;P1;durP2;ratioP2;P2;SDS_P1;SDS_P2;PMS_P1;PMS_P2;Temp;Humidity;BMP_temperature;BMP_pressure;BME280_temperature;BME280_humidity;BME280_pressure;Samples;Min_cycle;Max_cycle;Signal;HPM_P1;HPM_P2
2023/10/02 00:00:30;;;;;;;12.47;7.57;;;12.40;91.30;;;12.13;87.71;98679.72;5086690;28;20858;-76
2023/10/02 00:02:57;;;;;;;12.33;7.53;;;12.30;91.50;;;12.15;87.80;98683.91;5088497;28;20467;-76
2023/10/02 00:05:40;;;;;;;9.93;6.97;;;12.30;91.40;;;12.08;88.20;98677.66;5093015;28;20538;-75
2023/10/02 00:08:07;;;;;;;8.37;6.17;;;12.20;91.40;;;12.11;87.95;98677.25;5084681;28;20675;-77
2023/10/02 00:10:34;;;;;;;9.50;6.90;;;12.20;91.60;;;12.10;87.53;98675.56;5087587;28;20478;-76
2023/10/02 00:13:01;;;;;;;9.97;6.73;;;12.20;91.40;;;12.06;87.81;98679.75;5082978;28;20846;-75
2023/10/02 00:15:30;;;;;;;10.70;7.30;;;12.30;91.20;;;12.06;87.55;98674.34;5087015;28;20466;-77
2023/10/02 00:17:57;;;;;;;12.70;7.30;;;12.30;91.10;;;12.08;87.41;98676.81;5088333;28;20461;-75
2023/10/02 00:20:26;;;;;;;8.47;6.53;;;12.30;91.10;;;12.12;87.63;98673.50;5086863;28;20504;-76
2023/10/02 00:22:55;;;;;;;11.80;8.03;;;12.30;91.20;;;12.09;87.12;98668.50;5086014;28;20458;-76
2023/10/02 00:25:27;;;;;;;9.23;6.27;;;12.30;90.90;;;12.10;87.18;98670.16;5088248;28;20448;-76
2023/10/02 00:27:55;;;;;;;12.83;8.13;;;12.30;91.10;;;11.97;87.66;98662.00;5088061;28;20644;-75
2023/10/02 00:30:28;;;;;;;10.60;7.00;;;12.20;91.20;;;12.01;87.71;98665.94;5086865;28;20468;-77
2023/10/02 00:32:58;;;;;;;11.60;7.10;;;12.20;91.30;;;11.94;88.00;98665.13;5086697;28;20479;-78
2023/10/02 00:35:27;;;;;;;12.23;7.43;;;12.10;91.50;;;11.94;88.00;98660.53;5088671;28;20553;-76
2023/10/02 00:37:54;;;;;;;12.30;6.87;;;12.10;91.30;;;11.84;88.78;98666.38;5084253;28;20449;-75
2023/10/02 00:40:29;;;;;;;12.10;8.07;;;12.10;91.50;;;11.77;89.21;98657.44;5083676;28;20453;-75
2023/10/02 00:42:58;;;;;;;9.27;6.93;;;12.00;91.80;;;11.83;89.03;98664.72;5078785;28;20560;-75
2023/10/02 00:45:29;;;;;;;11.70;7.70;;;12.00;91.60;;;11.88;88.54;98659.50;5086705;28;20918;-76
2023/10/02 00:48:25;;;;;;;9.10;6.80;;;12.00;91.70;;;11.77;88.25;98652.00;5086077;28;20455;-77
2023/10/02 00:50:50;;;;;;;9.37;7.10;;;12.10;91.60;;;11.82;88.43;98673.88;5087397;28;20470;-76
2023/10/02 00:53:24;;;;;;;12.97;7.47;;;12.00;91.40;;;11.74;88.68;98669.50;5085765;28;20458;-75
2023/10/02 00:55:52;;;;;;;12.50;7.20;;;11.90;91.40;;;11.70;88.54;98665.53;5086514;28;20926;-76
2023/10/02 00:58:20;;;;;;;10.63;6.93;;;11.90;91.70;;;11.62;88.93;98665.72;5086912;28;20516;-76
2023/10/02 01:00:50;;;;;;;13.50;7.40;;;11.90;91.70;;;11.57;89.52;98669.03;5085273;28;20773;-76
2023/10/02 01:03:19;;;;;;;12.27;7.30;;;11.80;92.00;;;11.50;89.62;98662.81;5084321;28;20446;-74
2023/10/02 01:05:50;;;;;;;10.83;7.30;;;11.70;92.00;;;11.08;89.98;98605.28;5086420;28;20469;-76
2023/10/02 01:08:25;;;;;;;9.57;6.63;;;11.60;92.40;;;11.43;90.79;98659.25;5084513;28;20843;-76
2023/10/02 01:10:58;;;;;;;11.17;7.70;;;11.60;92.60;;;11.37;90.64;98658.19;5084764;28;20484;-76
2023/10/02 01:13:30;;;;;;;9.03;6.67;;;11.60;92.50;;;11.34;91.01;98662.16;5079700;28;20840;-77
2023/10/02 01:15:59;;;;;;;10.30;7.47;;;11.60;92.60;;;11.31;90.98;98657.16;5087495;28;20455;-76
2023/10/02 01:18:28;;;;;;;10.50;7.93;;;11.60;92.70;;;11.27;91.95;98666.69;5087076;28;20441;-75
2023/10/02 01:20:59;;;;;;;11.50;7.43;;;11.60;92.60;;;11.26;91.82;98662.31;5084771;28;20445;-77
2023/10/02 01:23:28;;;;;;;10.00;6.80;;;11.50;92.90;;;11.24;91.70;98660.88;5088636;28;20454;-76
2023/10/02 01:26:00;;;;;;;12.27;7.57;;;11.50;92.90;;;11.18;91.71;98652.53;5088856;28;20521;-76
2023/10/02 01:28:49;;;;;;;10.23;7.03;;;11.50;93.00;;;11.22;91.52;98657.53;5090627;28;20453;-76
2023/10/02 01:34:00;;;;;;;11.93;7.90;;;11.40;93.00;;;11.18;91.98;98651.72;5085614;28;20501;-76
2023/10/02 01:36:31;;;;;;;12.10;7.33;;;11.40;93.10;;;11.12;92.13;98653.34;5087756;28;20556;-76
2023/10/02 01:39:10;;;;;;;11.70;7.63;;;11.40;93.10;;;10.66;92.64;98584.56;5082613;28;20439;-76
2023/10/02 01:41:38;;;;;;;11.67;8.23;;;11.30;93.40;;;11.11;92.20;98648.13;5076822;28;20951;-77
2023/10/02 01:44:10;;;;;;;11.63;6.90;;;11.30;93.80;;;11.03;92.72;98652.72;5085358;28;20828;-77
2023/10/02 01:46:49;;;;;;;10.30;6.90;;;11.30;93.60;;;10.95;92.83;98663.69;5085294;28;20463;-76
2023/10/02 01:49:25;;;;;;;9.70;6.77;;;11.20;93.80;;;10.91;92.96;98659.72;5085776;28;20539;-75
2023/10/02 01:51:55;;;;;;;11.37;7.53;;;11.10;94.10;;;10.95;93.01;98658.28;5087307;28;20458;-77
2023/10/02 01:54:23;;;;;;;13.03;7.30;;;11.10;94.30;;;11.02;92.08;98653.75;5078565;28;20453;-77
2023/10/02 01:56:52;;;;;;;8.80;6.80;;;11.20;94.10;;;10.96;92.59;98657.25;5088469;28;20465;-76
2023/10/02 01:59:21;;;;;;;11.17;7.40;;;11.20;94.10;;;10.96;92.79;98646.44;5085148;28;20975;-75
2023/10/02 02:01:53;;;;;;;11.43;7.90;;;11.20;93.80;;;10.95;92.54;98649.34;5087085;28;20454;-76
2023/10/02 02:04:20;;;;;;;9.70;8.10;;;11.20;93.70;;;10.93;93.13;98652.25;5086482;28;20443;-76
2023/10/02 02:06:56;;;;;;;13.43;8.10;;;11.20;93.60;;;10.90;92.93;98649.94;5087020;28;21556;-77
2023/10/02 02:09:25;;;;;;;11.70;7.03;;;11.20;93.50;;;10.90;92.94;98649.94;5080545;28;20461;-76
2023/10/02 02:12:08;;;;;;;12.43;7.60;;;11.20;93.40;;;10.77;93.43;98643.44;5078115;28;20463;-76
2023/10/02 02:14:40;;;;;;;13.00;7.90;;;11.10;93.50;;;10.82;93.71;98648.25;5082646;28;20470;-75
2023/10/02 02:17:10;;;;;;;13.30;7.80;;;11.10;93.80;;;10.79;93.35;98658.63;5087085;28;20496;-76
2023/10/02 02:19:44;;;;;;;12.57;7.70;;;11.10;93.90;;;10.81;93.73;98656.56;5085120;28;20497;-76
2023/10/02 02:22:14;;;;;;;10.60;7.23;;;11.10;94.10;;;10.73;94.08;98661.13;5089394;28;20447;-77
2023/10/02 02:24:42;;;;;;;13.97;7.47;;;11.00;94.00;;;10.70;93.82;98669.63;5089254;28;20456;-75
2023/10/02 02:27:10;;;;;;;11.93;7.13;;;11.00;94.20;;;10.68;94.65;98668.97;5090344;28;20919;-76
2023/10/02 02:29:38;;;;;;;9.47;7.50;;;10.90;94.70;;;10.66;94.35;98662.94;5088036;28;20530;-76
2023/10/02 02:32:06;;;;;;;11.03;7.40;;;10.90;94.90;;;10.64;94.66;98656.91;5092944;28;20450;-77
2023/10/02 02:34:34;;;;;;;13.20;7.80;;;10.90;95.10;;;10.61;95.41;98647.34;5089494;28;20555;-76
2023/10/02 02:37:01;;;;;;;11.40;7.63;;;10.90;95.40;;;10.63;95.85;98655.22;5090325;28;20945;-76
2023/10/02 02:39:28;;;;;;;11.90;7.73;;;10.90;95.30;;;10.53;96.08;98654.75;5086722;28;20452;-75
2023/10/02 02:44:48;;;;;;;11.30;7.30;;;10.80;95.60;;;10.56;95.43;98660.59;5077959;28;20442;-77
2023/10/02 02:47:17;;;;;;;15.23;7.47;;;10.80;95.40;;;10.60;95.13;98655.63;5093218;28;20499;-76
2023/10/02 02:49:50;;;;;;;11.60;6.97;;;10.80;95.60;;;10.51;95.91;98659.53;5086858;28;20446;-76
2023/10/02 02:52:24;;;;;;;10.50;7.20;;;10.80;95.60;;;10.39;95.86;98643.88;5090203;28;20573;-78
2023/10/02 02:54:58;;;;;;;13.53;8.23;;;10.80;95.60;;;10.48;95.56;98656.19;5088719;28;20461;-76
2023/10/02 02:57:27;;;;;;;10.03;7.50;;;10.80;95.40;;;10.41;95.92;98655.34;5080971;28;20451;-76
2023/10/02 03:02:40;;;;;;;11.37;7.37;;;10.70;95.70;;;10.37;96.66;98656.72;5084087;28;20444;-77
2023/10/02 03:05:11;;;;;;;9.90;7.43;;;10.70;95.80;;;10.39;96.41;98676.28;5090116;28;20465;-76
2023/10/02 03:07:39;;;;;;;10.20;7.30;;;10.70;95.70;;;10.30;96.20;98666.66;5098207;28;20967;-77
2023/10/02 03:10:11;;;;;;;10.50;7.70;;;10.60;95.20;;;10.18;96.85;98664.50;5085196;28;21020;-76
2023/10/02 03:12:44;;;;;;;13.27;8.20;;;10.50;95.60;;;10.25;97.15;98667.25;5087782;28;20659;-77
2023/10/02 03:15:19;;;;;;;10.77;7.70;;;10.50;97.00;;;10.26;96.57;98660.81;5084633;28;20916;-76
2023/10/02 03:17:46;;;;;;;13.83;8.17;;;10.50;96.40;;;10.29;96.41;98665.00;5086635;28;20967;-76
2023/10/02 03:20:23;;;;;;;12.57;8.20;;;10.50;96.30;;;10.25;96.50;98664.53;5085897;28;20452;-76
2023/10/02 03:22:56;;;;;;;11.40;7.47;;;10.50;96.20;;;10.27;96.92;98661.66;5086569;28;20462;-76
2023/10/02 03:25:28;;;;;;;10.67;7.70;;;10.50;96.30;;;10.16;96.64;98661.16;5081290;28;20520;-76
2023/10/02 03:27:57;;;;;;;11.30;6.90;;;10.40;96.00;;;10.27;97.33;98658.94;5111275;28;20469;-76
2023/10/02 03:30:39;;;;;;;11.23;6.73;;;10.40;97.10;;;10.18;98.00;98659.09;5091995;28;20506;-77
2023/10/02 03:33:17;;;;;;;9.80;7.47;;;10.40;97.30;;;10.21;98.27;98653.28;5086787;28;20532;-77
2023/10/02 03:35:56;;;;;;;9.90;6.87;;;10.50;97.90;;;10.35;97.50;98658.78;5088753;28;20453;-76
2023/10/02 03:38:26;;;;;;;11.20;7.70;;;10.50;97.90;;;10.26;98.29;98655.41;5083323;28;20451;-76
2023/10/02 03:40:58;;;;;;;11.50;8.33;;;10.50;97.30;;;10.30;97.54;98655.84;5086808;28;20459;-77
2023/10/02 03:43:35;;;;;;;11.67;7.40;;;10.50;97.20;;;10.25;97.37;98651.03;5083696;28;20459;-76
2023/10/02 03:46:06;;;;;;;10.47;7.20;;;10.50;97.20;;;10.07;97.08;98632.63;5087145;28;20511;-76
2023/10/02 03:48:34;;;;;;;9.63;7.60;;;10.40;97.20;;;10.20;97.25;98667.81;5086373;28;20456;-76
2023/10/02 03:51:04;;;;;;;11.10;7.27;;;10.40;97.30;;;10.17;97.64;98652.03;5087238;28;20479;-76
2023/10/02 03:53:32;;;;;;;10.83;6.87;;;10.40;96.80;;;10.11;97.76;98647.44;5088765;28;20483;-76
2023/10/02 03:58:43;;;;;;;11.10;7.47;;;10.40;97.60;;;10.20;96.85;98640.81;5082000;28;20495;-75
2023/10/02 04:01:17;;;;;;;10.83;7.70;;;10.40;97.30;;;10.14;96.85;98638.91;5089450;28;20496;-76
2023/10/02 04:04:04;;;;;;;14.00;8.27;;;10.40;96.90;;;10.03;97.30;98634.91;5082406;28;20777;-76
2023/10/02 04:06:35;;;;;;;13.10;7.90;;;10.40;96.50;;;10.04;97.87;98641.97;5081836;28;20449;-76
2023/10/02 04:09:12;;;;;;;9.03;6.57;;;10.40;96.30;;;9.99;98.26;98640.91;5085778;28;20867;-76
2023/10/02 04:11:42;;;;;;;12.73;8.87;;;10.40;96.30;;;9.92;98.37;98633.56;5086946;28;20506;-76
2023/10/02 04:14:18;;;;;;;12.37;8.20;;;10.40;96.50;;;9.91;97.95;98633.78;5086137;28;20459;-76
2023/10/02 04:16:51;;;;;;;16.33;7.50;;;10.30;96.20;;;9.99;97.81;98638.19;5088772;28;20485;-75
2023/10/02 04:19:23;;;;;;;12.53;7.17;;;10.30;96.40;;;9.88;97.77;98636.88;5087701;28;20459;-74
2023/10/02 04:21:56;;;;;;;11.67;8.00;;;10.30;96.20;;;9.85;97.70;98640.78;5085594;28;20819;-77
2023/10/02 04:24:24;;;;;;;11.43;7.73;;;10.20;96.00;;;9.79;98.67;98644.28;5083636;28;20543;-78
2023/10/02 04:26:54;;;;;;;12.77;8.70;;;10.10;96.80;;;9.75;99.25;98642.97;5084891;28;20558;-75
2023/10/02 04:29:28;;;;;;;10.30;7.73;;;10.10;98.10;;;9.71;99.73;98641.72;5086301;28;20444;-76
2023/10/02 04:32:12;;;;;;;13.07;7.80;;;10.10;98.20;;;9.84;98.78;98639.13;5082842;28;20476;-75
2023/10/02 04:34:46;;;;;;;10.27;7.97;;;10.20;97.90;;;9.85;98.48;98646.19;5093678;28;20462;-75
2023/10/02 04:37:19;;;;;;;14.70;8.67;;;10.20;97.50;;;9.83;99.42;98640.16;5088316;28;20459;-76
2023/10/02 04:39:54;;;;;;;11.27;7.63;;;10.10;98.00;;;9.85;98.34;98642.63;5082175;28;20914;-76
2023/10/02 04:42:25;;;;;;;11.27;8.30;;;10.20;97.90;;;9.80;98.49;98655.91;5081716;28;20449;-76
2023/10/02 04:44:57;;;;;;;10.00;7.27;;;10.10;97.30;;;9.33;97.98;98587.03;5084298;28;20449;-76
2023/10/02 04:47:28;;;;;;;12.93;8.70;;;10.10;97.50;;;9.78;99.09;98647.97;5079469;28;20724;-76
2023/10/02 04:52:57;;;;;;;10.20;7.40;;;10.10;97.30;;;9.64;98.74;98642.50;5023990;28;20509;-77
2023/10/02 04:55:27;;;;;;;11.10;7.80;;;10.10;97.60;;;9.76;98.86;98650.03;5081321;28;20677;-76
2023/10/02 04:58:08;;;;;;;12.73;8.30;;;10.00;97.80;;;9.74;98.66;98647.56;5087494;28;20474;-75
2023/10/02 05:00:38;;;;;;;12.10;7.80;;;10.10;97.70;;;9.71;99.02;98644.41;5082867;28;20451;-75
2023/10/02 05:03:09;;;;;;;13.50;8.40;;;10.00;98.00;;;9.71;100.00;98647.09;5086128;28;20477;-76
2023/10/02 05:05:47;;;;;;;12.50;7.80;;;10.00;98.20;;;9.72;99.88;98651.47;5087873;28;20459;-76
2023/10/02 05:08:19;;;;;;;9.97;7.53;;;10.00;98.00;;;9.75;99.51;98643.81;5086847;28;20446;-76
2023/10/02 05:10:56;;;;;;;11.30;8.03;;;10.10;98.90;;;9.82;99.62;98643.88;5083122;28;20475;-76
2023/10/02 05:13:45;;;;;;;12.47;7.40;;;10.10;98.40;;;9.83;99.70;98640.16;5091812;28;20436;-76
2023/10/02 05:16:12;;;;;;;10.67;7.77;;;10.20;97.90;;;9.85;99.10;98642.63;5086504;28;20947;-76
2023/10/02 05:18:44;;;;;;;13.50;8.00;;;10.20;97.70;;;9.89;99.29;98642.06;5084661;28;20453;-77
2023/10/02 05:21:16;;;;;;;14.17;8.73;;;10.20;97.90;;;9.85;99.38;98630.00;5083849;28;21262;-76
2023/10/02 05:23:56;;;;;;;14.57;8.37;;;10.20;97.80;;;9.94;98.71;98640.66;5086483;28;20471;-76
2023/10/02 05:26:32;;;;;;;11.10;8.10;;;10.30;97.70;;;9.91;97.83;98629.19;5079178;28;20692;-76
2023/10/02 05:29:01;;;;;;;13.20;7.77;;;10.40;97.00;;;9.98;98.06;98625.72;5085960;28;20451;-76
2023/10/02 05:31:29;;;;;;;14.63;9.53;;;10.50;96.70;;;10.11;97.99;98636.63;5089685;28;20532;-75
2023/10/02 05:33:58;;;;;;;11.97;8.20;;;10.50;96.30;;;10.17;97.08;98657.44;5095577;28;20445;-75
2023/10/02 05:36:28;;;;;;;10.23;7.70;;;10.60;95.40;;;10.20;96.67;98654.31;5083370;28;20468;-75
2023/10/02 05:41:50;;;;;;;11.60;8.83;;;10.60;95.40;;;10.39;96.00;98657.38;5085843;28;20557;-75
2023/10/02 05:44:20;;;;;;;13.73;8.23;;;10.70;95.30;;;10.44;95.38;98652.22;5082931;28;20489;-77
2023/10/02 05:47:04;;;;;;;14.73;9.07;;;10.80;94.90;;;10.37;94.60;98656.72;5084993;28;20455;-75
2023/10/02 05:49:36;;;;;;;13.30;8.87;;;10.80;94.40;;;10.07;94.37;98601.06;5080151;28;20462;-77
2023/10/02 05:52:07;;;;;;;16.57;8.30;;;10.80;94.00;;;10.58;93.92;98661.22;5088531;28;20467;-77
2023/10/02 05:54:36;;;;;;;14.63;9.60;;;10.90;94.00;;;10.56;93.62;98657.91;5084909;28;20444;-75
2023/10/02 05:57:12;;;;;;;13.63;9.37;;;10.90;93.70;;;10.73;94.84;98663.81;5081823;28;20469;-76
2023/10/02 05:59:45;;;;;;;16.20;11.10;;;11.00;94.70;;;10.89;93.66;98659.09;5083972;28;20787;-75
2023/10/02 06:02:14;;;;;;;12.27;8.07;;;11.20;94.00;;;10.99;91.68;98670.34;5084262;28;20453;-76
2023/10/02 06:04:47;;;;;;;15.17;10.03;;;11.30;93.00;;;11.11;92.56;98661.66;5084780;28;20462;-76
2023/10/02 06:07:19;;;;;;;15.63;8.97;;;11.40;93.40;;;11.45;91.67;98668.84;5082224;28;20576;-76
2023/10/02 06:09:48;;;;;;;12.97;8.77;;;11.60;93.00;;;11.48;90.75;98678.41;5082468;28;20730;-76
2023/10/02 06:12:15;;;;;;;16.97;10.50;;;11.70;92.30;;;11.62;90.25;98680.09;5085854;28;20983;-77
2023/10/02 06:14:43;;;;;;;14.17;8.43;;;11.90;92.30;;;11.67;88.91;98673.25;5081947;28;21014;-76
2023/10/02 06:17:11;;;;;;;16.00;8.40;;;11.90;91.50;;;11.67;88.59;98671.34;5094562;28;20477;-76
2023/10/02 06:19:48;;;;;;;19.60;12.40;;;12.00;91.20;;;11.83;88.17;98675.53;5080151;28;20481;-76
2023/10/02 06:22:15;;;;;;;12.80;8.50;;;12.10;91.10;;;11.80;87.48;98683.22;5083141;28;20530;-76
2023/10/02 06:24:45;;;;;;;13.50;8.53;;;12.10;90.80;;;11.59;88.32;98675.09;5086400;28;20502;-75
2023/10/02 06:27:16;;;;;;;13.60;8.43;;;12.10;90.70;;;11.57;88.45;98671.75;5083296;28;20999;-76
2023/10/02 06:29:44;;;;;;;14.27;8.47;;;12.00;90.70;;;11.47;89.34;98682.97;5097391;28;21237;-75
2023/10/02 06:32:19;;;;;;;12.03;7.90;;;12.00;90.90;;;11.66;88.90;98675.09;5085843;28;20473;-77
2023/10/02 06:34:50;;;;;;;13.97;8.57;;;12.00;91.10;;;11.89;88.28;98680.09;5079631;28;20513;-81
2023/10/02 06:37:21;;;;;;;10.37;7.80;;;12.10;91.00;;;12.02;86.64;98673.91;5086407;28;20950;-77
2023/10/02 06:40:03;;;;;;;13.77;8.30;;;12.30;90.60;;;12.27;85.50;98670.53;5077558;28;20452;-79
2023/10/02 06:42:32;;;;;;;12.10;7.50;;;12.40;90.40;;;12.34;84.34;98670.53;5083962;28;20763;-75
2023/10/02 06:45:01;;;;;;;11.00;8.40;;;12.60;89.90;;;12.47;84.04;98673.22;5085381;28;20456;-79
2023/10/02 06:47:32;;;;;;;12.90;8.17;;;12.70;89.50;;;12.73;83.18;98657.94;5079495;28;20999;-76
2023/10/02 06:50:04;;;;;;;16.83;8.27;;;12.90;89.60;;;12.75;83.30;98671.28;5085735;28;20455;-79
2023/10/02 06:52:32;;;;;;;15.90;7.93;;;13.00;89.30;;;13.09;82.20;98676.56;5083853;28;20471;-74
2023/10/02 06:55:02;;;;;;;12.50;8.10;;;13.20;89.00;;;13.19;81.49;98676.94;5086649;28;20434;-79
2023/10/02 06:57:31;;;;;;;13.23;8.30;;;13.40;88.40;;;13.32;80.58;98671.44;5085790;28;20460;-78
2023/10/02 07:00:02;;;;;;;12.80;8.37;;;13.50;88.10;;;13.37;80.68;98669.94;5084606;28;20458;-81
2023/10/02 07:02:32;;;;;;;11.27;7.83;;;13.60;87.90;;;13.92;79.68;98676.72;5085083;28;20444;-75
2023/10/02 07:05:01;;;;;;;18.23;9.57;;;14.00;88.10;;;13.84;78.66;98675.94;5085385;28;20476;-74
2023/10/02 07:07:31;;;;;;;15.53;9.30;;;14.10;87.00;;;13.64;80.03;98672.53;5086451;28;20459;-73
2023/10/02 07:10:07;;;;;;;18.43;8.17;;;14.00;87.10;;;13.69;80.40;98678.13;5088284;28;20623;-77
2023/10/02 07:12:39;;;;;;;13.67;8.47;;;14.00;87.40;;;14.16;78.57;98691.38;5084054;28;20478;-76
2023/10/02 07:15:20;;;;;;;14.30;8.63;;;14.20;87.20;;;14.24;77.70;98685.63;5088759;28;20555;-79
2023/10/02 07:17:48;;;;;;;19.80;9.73;;;14.40;86.90;;;14.11;78.81;98686.59;5080883;28;20452;-78
2023/10/02 07:20:19;;;;;;;12.00;9.00;;;14.40;86.70;;;14.08;79.07;98684.31;5087476;28;20472;-81
2023/10/02 07:22:48;;;;;;;14.53;10.07;;;14.40;86.90;;;14.43;78.52;98681.06;5089147;28;20461;-79
2023/10/02 07:25:20;;;;;;;13.97;9.97;;;14.60;87.10;;;14.96;75.86;98678.84;5090036;28;20454;-79
2023/10/02 07:27:48;;;;;;;14.23;8.70;;;15.00;86.60;;;15.09;75.65;98672.41;5087499;28;20456;-80
2023/10/02 07:30:24;;;;;;;18.07;9.30;;;15.10;86.30;;;15.32;74.26;98670.88;5087806;28;20550;-78
2023/10/02 07:32:54;;;;;;;15.33;9.20;;;15.30;85.80;;;15.42;74.37;98665.69;5082541;28;20851;-81
2023/10/02 07:35:22;;;;;;;14.47;9.00;;;15.50;85.70;;;15.64;73.46;98672.50;5088881;28;20683;-76
2023/10/02 07:37:58;;;;;;;16.07;9.23;;;15.70;85.30;;;15.63;73.41;98670.84;5089083;28;21083;-77
2023/10/02 07:40:27;;;;;;;15.00;10.10;;;15.70;85.10;;;15.80;73.04;98671.81;5075276;28;20541;-79
2023/10/02 07:42:55;;;;;;;15.77;9.37;;;15.80;85.10;;;15.64;73.49;98667.91;5086988;28;20932;-79
2023/10/02 07:45:25;;;;;;;17.53;10.30;;;15.80;84.80;;;15.90;72.88;98678.63;5095844;28;20436;-78
2023/10/02 07:48:19;;;;;;;16.90;9.60;;;15.90;84.90;;;15.70;73.45;98666.94;5088646;28;20542;-77
2023/10/02 07:50:48;;;;;;;13.93;9.10;;;15.90;84.60;;;15.93;72.96;98659.09;5090228;28;20504;-75
2023/10/02 07:53:17;;;;;;;14.50;9.20;;;16.00;84.70;;;16.20;72.06;98664.09;5101519;28;20479;-77
2023/10/02 07:55:46;;;;;;;17.50;9.40;;;16.20;84.60;;;16.37;71.20;98664.19;5103169;28;20494;-78
2023/10/02 07:58:17;;;;;;;17.93;10.40;;;16.50;84.10;;;16.21;71.77;98669.28;5088555;28;20452;-77
2023/10/02 08:00:49;;;;;;;14.83;10.10;;;16.50;84.00;;;16.12;72.32;98663.38;5088005;28;20536;-76
2023/10/02 08:03:36;;;;;;;16.13;9.63;;;16.50;83.80;;;16.26;72.53;98665.88;5087692;28;20551;-78
2023/10/02 08:11:54;;;;;;;16.63;10.50;;;16.90;83.80;;;16.72;71.22;98657.91;5063398;28;20445;-77
2023/10/02 08:14:42;;;;;;;16.63;10.07;;;16.90;83.70;;;17.04;70.09;98651.19;5058195;28;20444;-77
2023/10/02 08:17:21;;;;;;;13.77;9.30;;;17.10;83.60;;;16.87;69.93;98586.44;5061522;28;20468;-79
2023/10/02 08:19:56;;;;;;;17.33;9.80;;;17.30;83.60;;;17.41;69.66;98656.28;5067387;28;20604;-79
2023/10/02 08:22:24;;;;;;;18.97;10.57;;;17.50;83.60;;;17.66;68.88;98652.34;5066170;28;20517;-74
2023/10/02 08:24:56;;;;;;;15.20;9.47;;;17.70;83.30;;;17.81;68.66;98655.31;5056345;28;20450;-77
2023/10/02 08:27:23;;;;;;;18.40;10.07;;;17.90;83.30;;;17.88;68.85;98657.09;5062328;28;20469;-77
2023/10/02 08:29:52;;;;;;;13.03;9.47;;;18.00;83.10;;;17.88;68.90;98657.09;5068904;28;20869;-77
2023/10/02 08:32:28;;;;;;;16.70;9.67;;;18.10;83.10;;;18.16;68.12;98644.44;5061687;28;20483;-81
2023/10/02 08:34:56;;;;;;;18.40;9.77;;;18.30;83.20;;;18.40;67.73;98656.81;5054942;28;20452;-78
2023/10/02 08:37:25;;;;;;;18.63;9.40;;;18.50;83.00;;;18.49;67.10;98654.47;5064577;28;20459;-79
2023/10/02 08:39:54;;;;;;;14.47;8.53;;;18.60;82.60;;;18.61;66.83;98657.13;5062970;28;20796;-78
2023/10/02 08:42:24;;;;;;;16.73;10.03;;;18.80;82.30;;;18.65;66.74;98641.00;5068501;28;20455;-77
2023/10/02 08:44:58;;;;;;;13.37;9.37;;;18.90;82.10;;;18.72;66.57;98646.31;5054698;28;20458;-78
2023/10/02 08:47:25;;;;;;;14.93;9.63;;;18.90;82.10;;;18.79;66.36;98653.25;5063070;28;20552;-77
2023/10/02 08:50:03;;;;;;;15.87;10.17;;;18.90;81.90;;;18.81;66.17;98650.25;5061769;28;20437;-79
2023/10/02 08:52:38;;;;;;;17.40;10.80;;;19.00;81.90;;;19.03;65.85;98644.81;5068665;28;20799;-75
2023/10/02 08:55:40;;;;;;;15.60;9.13;;;19.10;81.90;;;19.22;65.21;98658.16;5065263;28;20464;-79
2023/10/02 08:58:16;;;;;;;16.10;11.73;;;19.20;81.80;;;19.14;65.48;98643.03;5072133;28;20459;-80
2023/10/02 09:01:17;;;;;;;16.67;10.50;;;19.30;81.70;;;19.26;64.86;98634.69;5063740;28;20466;-81
2023/10/02 09:03:50;;;;;;;18.40;9.57;;;19.30;81.40;;;19.42;64.86;98643.88;5061964;28;20805;-78
2023/10/02 09:06:41;;;;;;;17.80;10.03;;;19.40;81.50;;;19.59;64.35;98643.78;5071733;28;20498;-78
2023/10/02 09:09:21;;;;;;;15.33;9.57;;;19.60;81.30;;;19.77;63.95;98648.03;5060758;28;20872;-77
2023/10/02 09:11:52;;;;;;;14.67;9.57;;;19.70;81.20;;;19.93;63.17;98642.69;5060422;28;20781;-79
2023/10/02 09:14:22;;;;;;;16.70;9.30;;;19.90;80.70;;;19.97;63.18;98646.59;5061668;28;20927;-80
2023/10/02 09:17:12;;;;;;;12.43;9.27;;;20.00;80.60;;;20.00;63.18;98643.31;5062694;28;20474;-80
2023/10/02 09:19:48;;;;;;;14.60;9.50;;;20.00;80.40;;;20.19;62.65;98641.00;5046871;28;20457;-78
2023/10/02 09:22:17;;;;;;;15.40;9.80;;;20.10;80.40;;;20.42;62.11;98638.13;5047555;28;20537;-79
2023/10/02 09:24:55;;;;;;;16.47;10.57;;;20.30;80.30;;;20.40;61.83;98635.63;5074505;28;20791;-79
2023/10/02 09:27:27;;;;;;;15.67;9.03;;;20.40;79.80;;;20.46;61.81;98633.75;5048147;28;23199;-78
2023/10/02 09:30:18;;;;;;;15.57;9.43;;;20.50;79.80;;;20.61;61.64;98636.59;5068778;28;20448;-72
2023/10/02 09:32:52;;;;;;;17.47;10.20;;;20.60;79.60;;;20.80;60.67;98622.38;5035199;28;20484;-77
2023/10/02 09:35:29;;;;;;;15.23;9.43;;;20.70;79.30;;;20.80;60.67;98616.88;5040920;28;20450;-80
2023/10/02 09:38:02;;;;;;;14.13;9.67;;;20.80;79.20;;;21.00;60.18;98621.66;5071624;28;20492;-79
2023/10/02 09:40:53;;;;;;;15.60;9.30;;;20.90;78.90;;;21.04;59.71;98610.97;5047045;28;20585;-77
2023/10/02 09:43:24;;;;;;;12.57;8.63;;;21.00;78.40;;;21.18;59.58;98617.63;5063301;28;20467;-80
2023/10/02 09:45:55;;;;;;;17.50;8.93;;;21.10;78.20;;;21.05;59.70;98609.88;5043857;28;20458;-79
2023/10/02 09:48:53;;;;;;;16.23;9.00;;;21.10;77.80;;;21.25;59.26;98611.03;5054659;28;20473;-80
2023/10/02 09:51:29;;;;;;;16.80;9.13;;;21.20;78.10;;;21.01;59.41;98548.34;5062768;28;20478;-78
2023/10/02 09:54:05;;;;;;;13.47;8.33;;;21.30;78.00;;;21.51;59.33;98620.97;5047084;28;20455;-78
2023/10/02 09:57:05;;;;;;;14.00;9.00;;;21.40;77.90;;;21.61;59.08;98605.56;5060928;28;20834;-79
2023/10/02 09:59:38;;;;;;;12.63;8.17;;;21.50;78.00;;;21.82;58.43;98600.13;5044150;28;20937;-79
2023/10/02 10:10:52;;;;;;;14.20;9.77;;;22.00;76.80;;;22.03;57.56;98587.97;5039904;28;20453;-78
2023/10/02 10:13:31;;;;;;;17.30;9.90;;;22.00;76.50;;;22.13;57.26;98586.34;5049974;28;20458;-80
2023/10/02 10:16:40;;;;;;;14.63;8.87;;;22.10;76.50;;;22.26;56.84;98595.94;5040762;28;21032;-80
2023/10/02 10:19:32;;;;;;;16.37;9.83;;;22.20;76.10;;;22.42;56.38;98582.97;5047190;28;20460;-79
2023/10/02 10:22:01;;;;;;;16.07;9.47;;;22.30;76.00;;;22.49;56.28;98578.84;5053048;28;20457;-82
2023/10/02 10:24:34;;;;;;;15.10;9.17;;;22.40;75.80;;;22.62;55.85;98582.91;5047309;28;20579;-75
2023/10/02 10:27:02;;;;;;;15.63;9.50;;;22.60;75.40;;;22.77;55.74;98581.19;5059219;28;20481;-76
2023/10/02 10:29:41;;;;;;;15.97;9.40;;;22.70;75.30;;;22.66;55.67;98576.84;5056909;28;20573;-79
2023/10/02 10:32:23;;;;;;;12.80;9.50;;;22.70;74.90;;;22.88;55.03;98580.06;5053040;28;20461;-79
2023/10/02 10:35:11;;;;;;;15.77;9.57;;;22.80;74.70;;;22.92;54.63;98574.81;5059768;28;20449;-73
2023/10/02 10:37:46;;;;;;;14.03;9.17;;;22.90;74.30;;;23.06;54.24;98572.25;5055749;28;20461;-75
2023/10/02 10:40:44;;;;;;;13.20;8.77;;;22.90;74.10;;;23.06;53.96;98544.69;5085120;28;20443;-79
2023/10/02 10:43:13;;;;;;;12.67;8.73;;;23.00;73.80;;;23.26;54.26;98562.19;5077718;28;20456;-77
2023/10/02 10:45:40;;;;;;;15.20;9.30;;;23.20;73.90;;;23.24;53.98;98553.38;5051327;28;20557;-81
2023/10/02 10:48:21;;;;;;;16.53;9.77;;;23.30;73.70;;;23.45;53.44;98565.97;5048866;28;20509;-77
2023/10/02 10:50:56;;;;;;;15.40;9.43;;;23.30;73.60;;;23.49;53.25;98561.50;5055260;28;20456;-79
2023/10/02 10:53:26;;;;;;;14.37;9.43;;;23.40;73.00;;;23.60;52.41;98551.22;5050345;28;20463;-77
2023/10/02 10:55:55;;;;;;;14.13;9.00;;;23.50;72.20;;;23.68;52.10;98558.03;5044961;28;20442;-77
2023/10/02 10:58:33;;;;;;;15.50;9.53;;;23.60;72.00;;;23.37;52.12;98551.97;5076670;28;20852;-76
2023/10/02 11:01:03;;;;;;;15.60;9.60;;;23.50;71.20;;;23.45;52.19;98549.41;5063515;28;20527;-76
2023/10/02 11:03:32;;;;;;;14.33;9.57;;;23.40;71.50;;;23.57;52.25;98542.69;5058062;28;20445;-80
2023/10/02 11:06:03;;;;;;;14.23;9.70;;;23.50;71.50;;;23.53;51.98;98549.91;5049580;28;20542;-80
2023/10/02 11:08:37;;;;;;;15.73;9.70;;;23.50;71.40;;;23.77;52.03;98544.44;5048145;28;20470;-77